sensor_id;sensor_type;location;lat;lon;timestamp;pressure;altitude;pressure_sealevel;temperature;humidity
40918;BME280;26644;50.248;19.032;2022-11-25T00:00:38;98038.81;;;2.61;83.66
40918;BME280;26644;50.248;19.032;2022-11-25T00:01:39;98032.22;;;2.57;83.32
40918;BME280;26644;50.248;19.032;2022-11-25T00:02:42;98023.41;;;2.50;83.84
40918;BME280;26644;50.248;19.032;2022-11-25T00:03:45;98033.50;;;2.55;83.89
40918;BME280;26644;50.248;19.032;2022-11-25T00:04:48;98035.66;;;2.53;84.01
40918;BME280;26644;50.248;19.032;2022-11-25T00:05:52;98029.63;;;2.51;84.06
40918;BME280;26644;50.248;19.032;2022-11-25T00:06:53;98038.00;;;2.49;83.98
40918;BME280;26644;50.248;19.032;2022-11-25T00:07:56;98026.56;;;2.47;84.22
40918;BME280;26644;50.248;19.032;2022-11-25T00:08:59;98032.47;;;2.44;84.02
40918;BME280;26644;50.248;19.032;2022-11-25T00:10:04;98031.28;;;2.40;84.04
40918;BME280;26644;50.248;19.032;2022-11-25T00:11:07;98029.06;;;2.37;84.24
40918;BME280;26644;50.248;19.032;2022-11-25T00:12:11;98030.13;;;2.36;84.60
40918;BME280;26644;50.248;19.032;2022-11-25T00:13:13;98033.88;;;2.35;84.42
40918;BME280;26644;50.248;19.032;2022-11-25T00:14:14;98028.69;;;2.33;84.73
40918;BME280;26644;50.248;19.032;2022-11-25T00:15:18;98032.47;;;2.32;84.31
40918;BME280;26644;50.248;19.032;2022-11-25T00:16:20;98037.31;;;2.30;84.69
40918;BME280;26644;50.248;19.032;2022-11-25T00:17:24;98036.47;;;2.30;84.69
40918;BME280;26644;50.248;19.032;2022-11-25T00:18:25;98034.00;;;2.28;84.68
40918;BME280;26644;50.248;19.032;2022-11-25T00:19:28;98036.72;;;2.28;84.78
40918;BME280;26644;50.248;19.032;2022-11-25T00:20:30;98030.47;;;2.27;85.00
40918;BME280;26644;50.248;19.032;2022-11-25T00:21:33;98041.06;;;2.29;85.25
40918;BME280;26644;50.248;19.032;2022-11-25T00:22:36;98042.94;;;2.28;85.17
40918;BME280;26644;50.248;19.032;2022-11-25T00:23:37;98040.84;;;2.31;84.82
40918;BME280;26644;50.248;19.032;2022-11-25T00:24:39;98045.19;;;2.32;85.18
40918;BME280;26644;50.248;19.032;2022-11-25T00:25:41;98045.19;;;2.32;85.11
40918;BME280;26644;50.248;19.032;2022-11-25T00:26:43;98047.06;;;2.31;85.05
40918;BME280;26644;50.248;19.032;2022-11-25T00:27:45;98052.28;;;2.33;84.99
40918;BME280;26644;50.248;19.032;2022-11-25T00:28:49;98041.88;;;2.30;85.10
40918;BME280;26644;50.248;19.032;2022-11-25T00:29:50;98044.34;;;2.31;85.20
40918;BME280;26644;50.248;19.032;2022-11-25T00:30:53;98050.50;;;2.38;85.00
40918;BME280;26644;50.248;19.032;2022-11-25T00:31:54;98053.22;;;2.38;85.08
40918;BME280;26644;50.248;19.032;2022-11-25T00:32:57;98052.16;;;2.39;85.22
40918;BME280;26644;50.248;19.032;2022-11-25T00:33:58;98051.78;;;2.36;85.24
40918;BME280;26644;50.248;19.032;2022-11-25T00:35:00;98049.78;;;2.43;84.99
40918;BME280;26644;50.248;19.032;2022-11-25T00:36:02;98053.66;;;2.47;84.99
40918;BME280;26644;50.248;19.032;2022-11-25T00:37:07;98056.97;;;2.49;84.76
40918;BME280;26644;50.248;19.032;2022-11-25T00:38:12;98051.31;;;2.51;84.84
40918;BME280;26644;50.248;19.032;2022-11-25T00:39:16;98049.44;;;2.51;84.61
40918;BME280;26644;50.248;19.032;2022-11-25T00:40:19;98050.25;;;2.52;84.69
40918;BME280;26644;50.248;19.032;2022-11-25T00:41:21;98049.19;;;2.53;84.49
40918;BME280;26644;50.248;19.032;2022-11-25T00:42:41;98053.31;;;2.55;84.98
40918;BME280;26644;50.248;19.032;2022-11-25T00:44:02;98050.38;;;2.57;84.82
40918;BME280;26644;50.248;19.032;2022-11-25T00:45:22;98055.31;;;2.60;84.42
40918;BME280;26644;50.248;19.032;2022-11-25T00:46:25;98054.25;;;2.61;84.87
40918;BME280;26644;50.248;19.032;2022-11-25T00:47:26;98062.97;;;2.63;84.63
40918;BME280;26644;50.248;19.032;2022-11-25T00:48:30;98059.19;;;2.64;84.51
40918;BME280;26644;50.248;19.032;2022-11-25T00:49:32;98061.66;;;2.66;84.62
40918;BME280;26644;50.248;19.032;2022-11-25T00:50:35;98064.72;;;2.69;84.55
40918;BME280;26644;50.248;19.032;2022-11-25T00:51:36;98064.50;;;2.71;84.64
40918;BME280;26644;50.248;19.032;2022-11-25T00:52:40;98065.91;;;2.73;84.56
40918;BME280;26644;50.248;19.032;2022-11-25T00:53:41;98069.22;;;2.75;84.14
40918;BME280;26644;50.248;19.032;2022-11-25T00:54:45;98066.03;;;2.78;84.01
40918;BME280;26644;50.248;19.032;2022-11-25T00:55:47;98063.91;;;2.81;84.07
40918;BME280;26644;50.248;19.032;2022-11-25T00:57:04;98061.53;;;2.84;84.38
40918;BME280;26644;50.248;19.032;2022-11-25T00:58:06;98068.34;;;2.87;84.05
40918;BME280;26644;50.248;19.032;2022-11-25T00:59:08;98065.19;;;2.90;83.72
40918;BME280;26644;50.248;19.032;2022-11-25T01:00:13;98065.75;;;2.92;83.55
40918;BME280;26644;50.248;19.032;2022-11-25T01:01:16;98071.78;;;2.94;83.57
40918;BME280;26644;50.248;19.032;2022-11-25T01:02:18;98068.81;;;2.96;83.62
40918;BME280;26644;50.248;19.032;2022-11-25T01:03:21;98071.06;;;2.99;83.59
40918;BME280;26644;50.248;19.032;2022-11-25T01:04:22;98056.81;;;2.91;83.46
40918;BME280;26644;50.248;19.032;2022-11-25T01:05:28;98068.09;;;3.00;83.39
40918;BME280;26644;50.248;19.032;2022-11-25T01:06:29;98075.19;;;3.01;83.40
40918;BME280;26644;50.248;19.032;2022-11-25T01:07:31;98071.41;;;3.02;83.58
40918;BME280;26644;50.248;19.032;2022-11-25T01:08:35;98066.78;;;3.03;83.23
40918;BME280;26644;50.248;19.032;2022-11-25T01:09:39;98076.59;;;3.04;83.31
40918;BME280;26644;50.248;19.032;2022-11-25T01:10:42;98069.75;;;3.01;83.04
40918;BME280;26644;50.248;19.032;2022-11-25T01:11:43;98070.34;;;3.03;83.10
40918;BME280;26644;50.248;19.032;2022-11-25T01:12:46;98078.47;;;3.03;83.18
40918;BME280;26644;50.248;19.032;2022-11-25T01:13:50;98072.22;;;3.03;83.21
40918;BME280;26644;50.248;19.032;2022-11-25T01:14:55;98072.22;;;3.03;83.21
40918;BME280;26644;50.248;19.032;2022-11-25T01:16:00;98080.59;;;3.01;83.22
40918;BME280;26644;50.248;19.032;2022-11-25T01:17:03;98066.34;;;2.94;83.21
40918;BME280;26644;50.248;19.032;2022-11-25T01:18:06;98081.66;;;3.00;83.02
40918;BME280;26644;50.248;19.032;2022-11-25T01:19:10;98067.66;;;2.91;83.11
40918;BME280;26644;50.248;19.032;2022-11-25T01:20:14;98076.22;;;3.00;83.30
40918;BME280;26644;50.248;19.032;2022-11-25T01:21:19;98074.59;;;2.99;82.99
40918;BME280;26644;50.248;19.032;2022-11-25T01:22:23;98076.22;;;3.00;83.28
40918;BME280;26644;50.248;19.032;2022-11-25T01:23:27;98076.22;;;3.00;83.01
40918;BME280;26644;50.248;19.032;2022-11-25T01:24:30;98071.41;;;3.02;83.08
40918;BME280;26644;50.248;19.032;2022-11-25T01:25:35;98067.88;;;3.02;83.34
40918;BME280;26644;50.248;19.032;2022-11-25T01:26:40;98068.69;;;3.02;83.07
40918;BME280;26644;50.248;19.032;2022-11-25T01:27:43;98073.06;;;3.03;83.59
40918;BME280;26644;50.248;19.032;2022-11-25T01:28:45;98070.09;;;3.05;83.09
40918;BME280;26644;50.248;19.032;2022-11-25T01:29:47;98075.28;;;3.06;83.61
40918;BME280;26644;50.248;19.032;2022-11-25T01:30:58;98070.47;;;3.08;83.43
40918;BME280;26644;50.248;19.032;2022-11-25T01:32:02;98069.38;;;3.09;83.20
40918;BME280;26644;50.248;19.032;2022-11-25T01:33:04;98073.50;;;3.12;83.04
40918;BME280;26644;50.248;19.032;2022-11-25T01:34:11;98069.72;;;3.13;83.21
40918;BME280;26644;50.248;19.032;2022-11-25T01:35:15;98067.00;;;3.13;83.04
40918;BME280;26644;50.248;19.032;2022-11-25T01:36:17;98065.97;;;3.14;83.25
40918;BME280;26644;50.248;19.032;2022-11-25T01:37:34;98058.63;;;3.15;83.13
40918;BME280;26644;50.248;19.032;2022-11-25T01:38:38;98066.75;;;3.15;83.08
40918;BME280;26644;50.248;19.032;2022-11-25T01:39:42;98059.22;;;3.17;82.97
40918;BME280;26644;50.248;19.032;2022-11-25T01:40:44;98063.59;;;3.18;82.89
40918;BME280;26644;50.248;19.032;2022-11-25T01:41:46;98053.31;;;3.20;83.00
40918;BME280;26644;50.248;19.032;2022-11-25T01:42:51;98067.47;;;3.22;83.22
40918;BME280;26644;50.248;19.032;2022-11-25T01:44:07;98062.63;;;3.24;83.04
40918;BME280;26644;50.248;19.032;2022-11-25T01:45:32;98059.66;;;3.25;83.08
40918;BME280;26644;50.248;19.032;2022-11-25T01:46:44;98059.66;;;3.25;83.05
40918;BME280;26644;50.248;19.032;2022-11-25T01:47:57;98065.09;;;3.25;83.07
40918;BME280;26644;50.248;19.032;2022-11-25T01:49:12;98058.59;;;3.26;82.85
40918;BME280;26644;50.248;19.032;2022-11-25T01:50:20;98062.16;;;3.27;82.89
40918;BME280;26644;50.248;19.032;2022-11-25T01:51:28;98056.72;;;3.27;83.16
40918;BME280;26644;50.248;19.032;2022-11-25T01:52:45;98059.44;;;3.27;83.16
40918;BME280;26644;50.248;19.032;2022-11-25T01:53:56;98055.88;;;3.26;82.90
40918;BME280;26644;50.248;19.032;2022-11-25T01:55:10;98061.31;;;3.26;83.23
40918;BME280;26644;50.248;19.032;2022-11-25T01:56:18;98055.06;;;3.26;83.05
40918;BME280;26644;50.248;19.032;2022-11-25T01:57:25;98059.66;;;3.25;83.22
40918;BME280;26644;50.248;19.032;2022-11-25T01:58:36;98058.84;;;3.25;83.12
40918;BME280;26644;50.248;19.032;2022-11-25T01:59:45;98063.22;;;3.26;83.14
40918;BME280;26644;50.248;19.032;2022-11-25T02:00:51;98058.59;;;3.26;83.65
40918;BME280;26644;50.248;19.032;2022-11-25T02:01:53;98062.38;;;3.25;83.58
40918;BME280;26644;50.248;19.032;2022-11-25T02:02:58;98060.75;;;3.24;83.68
40918;BME280;26644;50.248;19.032;2022-11-25T02:04:01;98047.78;;;3.15;83.79
40918;BME280;26644;50.248;19.032;2022-11-25T02:05:09;98064.03;;;3.26;83.86
40918;BME280;26644;50.248;19.032;2022-11-25T02:06:21;98052.50;;;3.19;83.49
40918;BME280;26644;50.248;19.032;2022-11-25T02:07:30;98062.38;;;3.25;83.55
40918;BME280;26644;50.248;19.032;2022-11-25T02:08:36;98065.09;;;3.25;83.86
40918;BME280;26644;50.248;19.032;2022-11-25T02:09:41;98063.22;;;3.26;83.65
40918;BME280;26644;50.248;19.032;2022-11-25T02:10:51;98065.09;;;3.25;83.42
40918;BME280;26644;50.248;19.032;2022-11-25T02:11:56;98064.25;;;3.25;83.84
40918;BME280;26644;50.248;19.032;2022-11-25T02:12:59;98066.97;;;3.25;83.51
40918;BME280;26644;50.248;19.032;2022-11-25T02:14:01;98069.69;;;3.25;83.71
40918;BME280;26644;50.248;19.032;2022-11-25T02:15:05;98071.59;;;3.24;83.42
40918;BME280;26644;50.248;19.032;2022-11-25T02:16:12;98068.88;;;3.24;83.44
40918;BME280;26644;50.248;19.032;2022-11-25T02:17:13;98062.63;;;3.24;83.60
40918;BME280;26644;50.248;19.032;2022-11-25T02:18:16;98064.50;;;3.23;83.84
40918;BME280;26644;50.248;19.032;2022-11-25T02:19:23;98074.56;;;3.23;83.76
40918;BME280;26644;50.248;19.032;2022-11-25T02:20:30;98074.78;;;3.21;84.22
40918;BME280;26644;50.248;19.032;2022-11-25T02:21:40;98068.78;;;3.19;84.20
40918;BME280;26644;50.248;19.032;2022-11-25T02:22:56;98063.34;;;3.19;84.19
40918;BME280;26644;50.248;19.032;2022-11-25T02:24:11;98070.88;;;3.17;83.93
40918;BME280;26644;50.248;19.032;2022-11-25T02:25:23;98064.91;;;3.15;84.37
40918;BME280;26644;50.248;19.032;2022-11-25T02:26:30;98075.75;;;3.15;84.19
40918;BME280;26644;50.248;19.032;2022-11-25T02:27:32;98067.84;;;3.14;84.06
40918;BME280;26644;50.248;19.032;2022-11-25T02:28:35;98069.72;;;3.13;84.52
40918;BME280;26644;50.248;19.032;2022-11-25T02:29:38;98072.44;;;3.13;84.59
40918;BME280;26644;50.248;19.032;2022-11-25T02:30:44;98077.63;;;3.15;84.43
40918;BME280;26644;50.248;19.032;2022-11-25T02:31:48;98069.38;;;3.09;84.70
40918;BME280;26644;50.248;19.032;2022-11-25T02:32:51;98073.28;;;3.14;84.77
40918;BME280;26644;50.248;19.032;2022-11-25T02:33:53;98066.75;;;3.15;84.54
40918;BME280;26644;50.248;19.032;2022-11-25T02:34:55;98074.09;;;3.14;84.75
40918;BME280;26644;50.248;19.032;2022-11-25T02:35:58;98075.75;;;3.15;84.91
40918;BME280;26644;50.248;19.032;2022-11-25T02:37:03;98076.56;;;3.16;84.96
40918;BME280;26644;50.248;19.032;2022-11-25T02:38:11;98077.38;;;3.16;84.63
40918;BME280;26644;50.248;19.032;2022-11-25T02:39:17;98079.03;;;3.17;84.80
40918;BME280;26644;50.248;19.032;2022-11-25T02:40:26;98059.81;;;3.07;84.77
40918;BME280;26644;50.248;19.032;2022-11-25T02:41:32;98062.88;;;3.10;85.15
40918;BME280;26644;50.248;19.032;2022-11-25T02:42:40;98057.09;;;3.07;85.08
40918;BME280;26644;50.248;19.032;2022-11-25T02:43:41;98076.06;;;3.19;85.14
40918;BME280;26644;50.248;19.032;2022-11-25T02:44:44;98077.72;;;3.20;84.90
40918;BME280;26644;50.248;19.032;2022-11-25T02:45:54;98073.94;;;3.21;84.86
40918;BME280;26644;50.248;19.032;2022-11-25T02:46:59;98076.41;;;3.22;85.11
40918;BME280;26644;50.248;19.032;2022-11-25T02:48:01;98069.13;;;3.23;84.98
40918;BME280;26644;50.248;19.032;2022-11-25T02:49:04;98075.13;;;3.25;84.95
40918;BME280;26644;50.248;19.032;2022-11-25T02:50:06;98070.50;;;3.25;84.97
40918;BME280;26644;50.248;19.032;2022-11-25T02:51:11;98068.63;;;3.26;84.83
40918;BME280;26644;50.248;19.032;2022-11-25T02:52:14;98073.81;;;3.27;84.90
40918;BME280;26644;50.248;19.032;2022-11-25T02:53:18;98073.81;;;3.27;85.09
40918;BME280;26644;50.248;19.032;2022-11-25T02:54:20;98075.47;;;3.28;85.10
40918;BME280;26644;50.248;19.032;2022-11-25T02:55:25;98077.69;;;3.32;85.10
40918;BME280;26644;50.248;19.032;2022-11-25T02:56:29;98077.69;;;3.32;84.83
40918;BME280;26644;50.248;19.032;2022-11-25T02:57:32;98074.97;;;3.32;84.96
40918;BME280;26644;50.248;19.032;2022-11-25T02:58:34;98084.78;;;3.33;85.10
40918;BME280;26644;50.248;19.032;2022-11-25T02:59:37;98079.09;;;3.34;84.82
40918;BME280;26644;50.248;19.032;2022-11-25T03:00:39;98082.06;;;3.33;85.16
40918;BME280;26644;50.248;19.032;2022-11-25T03:01:43;98084.28;;;3.36;85.16
40918;BME280;26644;50.248;19.032;2022-11-25T03:02:44;98088.66;;;3.37;84.81
40918;BME280;26644;50.248;19.032;2022-11-25T03:03:47;98083.22;;;3.37;84.63
40918;BME280;26644;50.248;19.032;2022-11-25T03:04:49;98085.69;;;3.38;85.19
40918;BME280;26644;50.248;19.032;2022-11-25T03:05:53;98081.91;;;3.39;85.05
40918;BME280;26644;50.248;19.032;2022-11-25T03:06:54;98083.34;;;3.42;85.11
40918;BME280;26644;50.248;19.032;2022-11-25T03:07:58;98088.50;;;3.43;84.92
40918;BME280;26644;50.248;19.032;2022-11-25T03:09:01;98089.09;;;3.46;84.97
40918;BME280;26644;50.248;19.032;2022-11-25T03:10:05;98085.31;;;3.47;85.09
40918;BME280;26644;50.248;19.032;2022-11-25T03:11:10;98087.56;;;3.50;84.96
40918;BME280;26644;50.248;19.032;2022-11-25T03:12:12;98087.31;;;3.51;85.03
40918;BME280;26644;50.248;19.032;2022-11-25T03:13:19;98084.00;;;3.49;84.67
40918;BME280;26644;50.248;19.032;2022-11-25T03:14:23;98089.53;;;3.54;85.05
40918;BME280;26644;50.248;19.032;2022-11-25T03:15:24;98093.09;;;3.55;84.89
40918;BME280;26644;50.248;19.032;2022-11-25T03:16:26;98079.16;;;3.51;84.95
40918;BME280;26644;50.248;19.032;2022-11-25T03:17:27;98093.66;;;3.57;84.82
40918;BME280;26644;50.248;19.032;2022-11-25T03:18:30;98095.31;;;3.58;84.75
40918;BME280;26644;50.248;19.032;2022-11-25T03:19:33;98086.09;;;3.59;84.69
40918;BME280;26644;50.248;19.032;2022-11-25T03:20:36;98086.91;;;3.59;84.24
40918;BME280;26644;50.248;19.032;2022-11-25T03:21:38;98084.19;;;3.59;84.13
40918;BME280;26644;50.248;19.032;2022-11-25T03:22:40;98083.38;;;3.59;84.10
40918;BME280;26644;50.248;19.032;2022-11-25T03:23:42;98083.38;;;3.59;84.65
40918;BME280;26644;50.248;19.032;2022-11-25T03:24:45;98086.91;;;3.59;84.61
40918;BME280;26644;50.248;19.032;2022-11-25T03:25:46;98090.22;;;3.61;84.31
40918;BME280;26644;50.248;19.032;2022-11-25T03:26:50;98087.00;;;3.65;84.43
40918;BME280;26644;50.248;19.032;2022-11-25T03:27:52;98085.13;;;3.65;84.56
40918;BME280;26644;50.248;19.032;2022-11-25T03:28:54;98089.22;;;3.68;84.56
40918;BME280;26644;50.248;19.032;2022-11-25T03:29:57;98091.72;;;3.69;84.41
40918;BME280;26644;50.248;19.032;2022-11-25T03:31:01;98094.19;;;3.71;84.38
40918;BME280;26644;50.248;19.032;2022-11-25T03:32:03;98098.78;;;3.70;84.34
40918;BME280;26644;50.248;19.032;2022-11-25T03:33:06;98095.75;;;3.67;85.04
40918;BME280;26644;50.248;19.032;2022-11-25T03:34:08;98093.09;;;3.72;84.05
40918;BME280;26644;50.248;19.032;2022-11-25T03:35:12;98095.00;;;3.71;84.08
40918;BME280;26644;50.248;19.032;2022-11-25T03:36:14;98102.09;;;3.72;84.42
40918;BME280;26644;50.248;19.032;2022-11-25T03:37:16;98101.50;;;3.70;84.32
40918;BME280;26644;50.248;19.032;2022-11-25T03:38:18;98107.53;;;3.72;84.57
40918;BME280;26644;50.248;19.032;2022-11-25T03:39:21;98103.97;;;3.72;84.61
40918;BME280;26644;50.248;19.032;2022-11-25T03:40:24;98101.84;;;3.74;84.34
40918;BME280;26644;50.248;19.032;2022-11-25T03:41:28;98110.81;;;3.74;84.51
40918;BME280;26644;50.248;19.032;2022-11-25T03:42:31;98112.22;;;3.77;84.20
40918;BME280;26644;50.248;19.032;2022-11-25T03:43:33;98104.06;;;3.77;84.24
40918;BME280;26644;50.248;19.032;2022-11-25T03:44:35;98110.34;;;3.77;84.41
40918;BME280;26644;50.248;19.032;2022-11-25T03:45:38;98097.97;;;3.70;84.47
40918;BME280;26644;50.248;19.032;2022-11-25T03:46:41;98113.88;;;3.78;84.67
40918;BME280;26644;50.248;19.032;2022-11-25T03:47:44;98110.91;;;3.80;84.70
40918;BME280;26644;50.248;19.032;2022-11-25T03:48:46;98108.44;;;3.78;84.23
40918;BME280;26644;50.248;19.032;2022-11-25T03:49:48;98107.38;;;3.79;84.13
40918;BME280;26644;50.248;19.032;2022-11-25T03:50:50;98104.41;;;3.81;84.60
40918;BME280;26644;50.248;19.032;2022-11-25T03:51:52;98111.75;;;3.80;84.18
40918;BME280;26644;50.248;19.032;2022-11-25T03:52:55;98110.66;;;3.81;84.15
40918;BME280;26644;50.248;19.032;2022-11-25T03:54:00;98110.66;;;3.81;84.28
40918;BME280;26644;50.248;19.032;2022-11-25T03:55:05;98102.50;;;3.81;84.04
40918;BME280;26644;50.248;19.032;2022-11-25T03:56:10;98098.06;;;3.75;84.33
40918;BME280;26644;50.248;19.032;2022-11-25T03:57:11;98107.13;;;3.81;84.28
40918;BME280;26644;50.248;19.032;2022-11-25T03:58:15;98104.41;;;3.81;84.53
40918;BME280;26644;50.248;19.032;2022-11-25T03:59:16;98104.16;;;3.82;84.19
40918;BME280;26644;50.248;19.032;2022-11-25T04:00:19;98109.59;;;3.82;84.47
40918;BME280;26644;50.248;19.032;2022-11-25T04:01:47;98111.50;;;3.82;84.02
40918;BME280;26644;50.248;19.032;2022-11-25T04:02:49;98098.97;;;3.81;84.16
40918;BME280;26644;50.248;19.032;2022-11-25T04:03:52;98103.59;;;3.80;84.04
40918;BME280;26644;50.248;19.032;2022-11-25T04:04:55;98107.13;;;3.81;84.30
40918;BME280;26644;50.248;19.032;2022-11-25T04:05:57;98104.16;;;3.82;84.35
40918;BME280;26644;50.248;19.032;2022-11-25T04:07:00;98103.00;;;3.78;84.41
40918;BME280;26644;50.248;19.032;2022-11-25T04:08:01;98113.72;;;3.85;84.36
40918;BME280;26644;50.248;19.032;2022-11-25T04:09:05;98108.28;;;3.85;84.64
40918;BME280;26644;50.248;19.032;2022-11-25T04:10:08;98109.94;;;3.86;84.77
40918;BME280;26644;50.248;19.032;2022-11-25T04:11:19;98103.34;;;3.82;84.49
40918;BME280;26644;50.248;19.032;2022-11-25T04:12:25;98116.19;;;3.86;84.06
40918;BME280;26644;50.248;19.032;2022-11-25T04:13:46;98111.84;;;3.85;84.17
40918;BME280;26644;50.248;19.032;2022-11-25T04:14:48;98106.41;;;3.85;84.38
40918;BME280;26644;50.248;19.032;2022-11-25T04:15:50;98111.84;;;3.85;84.45
40918;BME280;26644;50.248;19.032;2022-11-25T04:16:53;98113.72;;;3.85;84.25
40918;BME280;26644;50.248;19.032;2022-11-25T04:17:55;98114.78;;;3.84;84.45
40918;BME280;26644;50.248;19.032;2022-11-25T04:18:58;98115.88;;;3.83;84.51
40918;BME280;26644;50.248;19.032;2022-11-25T04:19:59;98113.16;;;3.83;84.00
40918;BME280;26644;50.248;19.032;2022-11-25T04:21:03;98110.66;;;3.81;84.58
40918;BME280;26644;50.248;19.032;2022-11-25T04:22:04;98126.72;;;3.83;84.57
40918;BME280;26644;50.248;19.032;2022-11-25T04:23:12;98118.34;;;3.84;84.55
40918;BME280;26644;50.248;19.032;2022-11-25T04:24:19;98117.03;;;3.87;84.54
40918;BME280;26644;50.248;19.032;2022-11-25T04:25:22;98118.69;;;3.88;84.32
40918;BME280;26644;50.248;19.032;2022-11-25T04:26:23;98119.50;;;3.88;84.51
40918;BME280;26644;50.248;19.032;2022-11-25T04:27:25;98121.16;;;3.89;84.26
40918;BME280;26644;50.248;19.032;2022-11-25T04:28:28;98124.44;;;3.91;83.93
40918;BME280;26644;50.248;19.032;2022-11-25T04:29:32;98119.00;;;3.91;84.30
40918;BME280;26644;50.248;19.032;2022-11-25T04:30:37;98126.91;;;3.93;84.16
40918;BME280;26644;50.248;19.032;2022-11-25T04:31:40;98123.13;;;3.94;84.44
40918;BME280;26644;50.248;19.032;2022-11-25T04:32:41;98122.88;;;3.95;84.56
40918;BME280;26644;50.248;19.032;2022-11-25T04:33:45;98121.81;;;3.97;83.93
40918;BME280;26644;50.248;19.032;2022-11-25T04:34:47;98120.75;;;3.98;83.89
40918;BME280;26644;50.248;19.032;2022-11-25T04:35:49;98122.41;;;3.99;83.83
40918;BME280;26644;50.248;19.032;2022-11-25T04:36:51;98119.69;;;3.99;84.21
40918;BME280;26644;50.248;19.032;2022-11-25T04:37:53;98121.31;;;4.00;84.11
40918;BME280;26644;50.248;19.032;2022-11-25T04:38:56;98118.38;;;4.01;84.19
40918;BME280;26644;50.248;19.032;2022-11-25T04:39:58;98123.31;;;4.04;84.46
40918;BME280;26644;50.248;19.032;2022-11-25T04:41:02;98127.69;;;4.05;84.13
40918;BME280;26644;50.248;19.032;2022-11-25T04:42:10;98123.06;;;4.06;84.02
40918;BME280;26644;50.248;19.032;2022-11-25T04:43:30;98124.72;;;4.07;84.18
40918;BME280;26644;50.248;19.032;2022-11-25T04:44:42;98125.28;;;4.09;84.07
40918;BME280;26644;50.248;19.032;2022-11-25T04:45:45;98133.22;;;4.10;83.94
40918;BME280;26644;50.248;19.032;2022-11-25T04:46:48;98123.16;;;4.11;84.26
40918;BME280;26644;50.248;19.032;2022-11-25T04:47:49;98132.72;;;4.14;84.06
40918;BME280;26644;50.248;19.032;2022-11-25T04:48:52;98132.47;;;4.15;84.03
40918;BME280;26644;50.248;19.032;2022-11-25T04:49:55;98133.53;;;4.14;83.87
40918;BME280;26644;50.248;19.032;2022-11-25T04:50:58;98136.25;;;4.14;83.85
40918;BME280;26644;50.248;19.032;2022-11-25T04:52:00;98134.38;;;4.15;83.94
40918;BME280;26644;50.248;19.032;2022-11-25T04:53:03;98139.56;;;4.16;83.91
40918;BME280;26644;50.248;19.032;2022-11-25T04:54:04;98137.41;;;4.18;84.08
40918;BME280;26644;50.248;19.032;2022-11-25T04:55:09;98130.91;;;4.19;84.02
40918;BME280;26644;50.248;19.032;2022-11-25T04:56:16;98138.00;;;4.20;83.92
40918;BME280;26644;50.248;19.032;2022-11-25T04:57:21;98134.22;;;4.21;83.82
40918;BME280;26644;50.248;19.032;2022-11-25T04:58:22;98137.50;;;4.23;84.15
40918;BME280;26644;50.248;19.032;2022-11-25T04:59:39;98141.06;;;4.24;83.46
40918;BME280;26644;50.248;19.032;2022-11-25T05:00:46;98140.81;;;4.25;83.69
40918;BME280;26644;50.248;19.032;2022-11-25T05:01:48;98135.38;;;4.25;83.79
40918;BME280;26644;50.248;19.032;2022-11-25T05:02:58;98138.91;;;4.26;83.61
40918;BME280;26644;50.248;19.032;2022-11-25T05:03:59;98139.75;;;4.26;83.71
40918;BME280;26644;50.248;19.032;2022-11-25T05:05:02;98147.63;;;4.28;83.83
40918;BME280;26644;50.248;19.032;2022-11-25T05:06:06;98146.56;;;4.29;83.45
40918;BME280;26644;50.248;19.032;2022-11-25T05:07:12;98136.94;;;4.21;83.54
40918;BME280;26644;50.248;19.032;2022-11-25T05:08:16;98153.16;;;4.33;83.71
40918;BME280;26644;50.248;19.032;2022-11-25T05:09:18;98152.06;;;4.34;83.84
40918;BME280;26644;50.248;19.032;2022-11-25T05:10:24;98149.94;;;4.36;83.66
40918;BME280;26644;50.248;19.032;2022-11-25T05:11:27;98150.75;;;4.37;83.31
40918;BME280;26644;50.248;19.032;2022-11-25T05:12:29;98157.03;;;4.37;83.07
40918;BME280;26644;50.248;19.032;2022-11-25T05:13:32;98155.38;;;4.36;83.15
40918;BME280;26644;50.248;19.032;2022-11-25T05:14:34;98159.16;;;4.35;83.08
40918;BME280;26644;50.248;19.032;2022-11-25T05:15:36;98153.72;;;4.35;83.07
40918;BME280;26644;50.248;19.032;2022-11-25T05:16:43;98162.94;;;4.34;83.10
40918;BME280;26644;50.248;19.032;2022-11-25T05:17:45;98161.31;;;4.33;83.52
40918;BME280;26644;50.248;19.032;2022-11-25T05:18:48;98157.75;;;4.33;83.12
40918;BME280;26644;50.248;19.032;2022-11-25T05:19:51;98163.19;;;4.33;83.57
40918;BME280;26644;50.248;19.032;2022-11-25T05:20:53;98170.53;;;4.32;83.68
40918;BME280;26644;50.248;19.032;2022-11-25T05:21:56;98165.59;;;4.29;83.33
40918;BME280;26644;50.248;19.032;2022-11-25T05:22:58;98162.28;;;4.27;83.47
40918;BME280;26644;50.248;19.032;2022-11-25T05:24:00;98163.34;;;4.26;83.40
40918;BME280;26644;50.248;19.032;2022-11-25T05:25:05;98164.41;;;4.25;83.66
40918;BME280;26644;50.248;19.032;2022-11-25T05:26:12;98161.69;;;4.25;83.87
40918;BME280;26644;50.248;19.032;2022-11-25T05:27:19;98169.28;;;4.23;83.78
40918;BME280;26644;50.248;19.032;2022-11-25T05:28:22;98166.56;;;4.23;83.56
40918;BME280;26644;50.248;19.032;2022-11-25T05:29:23;98166.81;;;4.21;84.02
40918;BME280;26644;50.248;19.032;2022-11-25T05:30:27;98176.03;;;4.20;83.65
40918;BME280;26644;50.248;19.032;2022-11-25T05:31:29;98166.22;;;4.19;83.69
40918;BME280;26644;50.248;19.032;2022-11-25T05:32:33;98169.78;;;4.20;83.92
40918;BME280;26644;50.248;19.032;2022-11-25T05:33:39;98168.94;;;4.19;84.05
40918;BME280;26644;50.248;19.032;2022-11-25T05:34:43;98168.84;;;4.14;83.76
40918;BME280;26644;50.248;19.032;2022-11-25T05:35:53;98175.22;;;4.20;84.17
40918;BME280;26644;50.248;19.032;2022-11-25T05:36:58;98173.56;;;4.19;83.78
40918;BME280;26644;50.248;19.032;2022-11-25T05:38:00;98178.16;;;4.18;83.93
40918;BME280;26644;50.248;19.032;2022-11-25T05:39:04;98173.81;;;4.17;83.97
40918;BME280;26644;50.248;19.032;2022-11-25T05:40:25;98173.81;;;4.17;84.06
40918;BME280;26644;50.248;19.032;2022-11-25T05:41:35;98178.16;;;4.18;83.95